Werte bis 5 Uhr SommerzeitDiagramme Gross-Gerau: Tagesdaten Monatsdaten WindroseCSV-Datei: Gross-Gerau21.csv

Wetterdaten 2021 Station: Gross-Gerau
Temperaturen in °C relative Nieder- Global- Wind Wind Wind- Sonnen-
Datum Boden Boden Luft Luft Luft Luft Feuchte schlag strahlung max richtung schein
20 cm 5 cm 20 cm 2 m 2 m max 2 m min % mm W/m2*d m/s m/s ° h

06.05.2021 11,2 9,9 3,1 3,8 5,0 3,1 97 0,0 0 0,7 2,8 161 ---
05.05.2021 11,0 11,1 8,2 8,1 11,9 3,8 71 1,9 4946 2,8 14,4 263 10,2
04.05.2021 11,5 11,0 9,9 10,2 13,4 6,8 64 2,3 1426 4,6 14,7 232 3,0
03.05.2021 12,0 12,2 7,8 7,9 15,5 -1,4 62 0,0 5708 1,4 8,3 232 12,2
02.05.2021 12,2 13,0 10,4 10,0 13,7 2,6 49 0,0 6458 1,5 8,4 287 11,2
01.05.2021 11,7 12,0 10,1 9,8 14,9 3,1 65 0,0 3969 1,0 5,0 205 10,7
30.04.2021 12,0 11,5 6,6 6,6 10,7 -0,7 74 0,0 2920 0,8 3,7 188 11,9
29.04.2021 13,3 14,1 12,3 12,1 18,2 4,7 71 6,5 5819 2,5 10,2 245 11,6
28.04.2021 12,7 13,7 13,3 12,8 22,2 5,1 52 6,1 6062 1,4 8,7 247 10,4
27.04.2021 12,3 13,2 11,4 11,0 18,7 3,8 37 0,0 7268 1,4 6,6 65 12,5
26.04.2021 12,0 12,7 10,4 9,8 17,1 1,2 40 0,0 7450 1,6 8,4 69 12,3
25.04.2021 12,0 12,8 10,6 9,9 15,8 4,7 47 0,0 7291 1,8 7,4 24 12,1
24.04.2021 11,6 12,4 10,7 10,4 17,6 0,8 54 0,0 7014 1,4 6,3 15 12,0
23.04.2021 11,2 11,9 8,9 8,6 17,2 -0,5 59 0,0 7102 0,9 6,7 325 12,1
22.04.2021 11,1 11,8 10,3 9,9 15,6 4,6 51 0,0 6803 1,5 7,8 319 11,7
21.04.2021 10,8 11,5 10,1 10,4 20,4 1,2 71 1,4 4887 0,7 7,8 138 10,9
20.04.2021 10,1 11,0 8,9 8,9 18,2 0,4 75 0,1 6024 0,7 6,3 287 11,1
19.04.2021 9,7 10,5 9,5 9,3 14,8 4,3 88 5,0 3238 0,7 6,1 46 9,9
18.04.2021 9,2 9,7 8,4 8,2 13,8 4,0 78 0,7 2824 0,7 3,7 328 9,8
17.04.2021 8,4 9,1 7,3 7,0 12,3 1,0 62 0,0 4909 1,2 8,1 45 9,0
16.04.2021 7,9 7,7 5,0 5,0 8,6 0,0 67 0,0 2742 1,0 6,5 59 9,0
15.04.2021 7,7 7,5 4,2 4,1 11,6 -3,6 66 0,0 4828 1,2 7,0 60 11,0
14.04.2021 7,8 7,4 3,3 3,2 10,5 -3,3 69 0,0 4121 0,9 7,0 354 9,7
13.04.2021 8,0 7,6 3,3 3,1 10,3 -4,1 72 0,1 4361 0,8 6,2 304 10,6
12.04.2021 8,7 8,8 4,9 4,7 9,9 -1,3 76 0,6 4025 1,2 7,6 318 9,8
11.04.2021 9,0 9,3 8,2 8,2 15,4 3,8 90 7,4 1962 1,4 6,9 214 4,3
10.04.2021 8,7 9,2 9,6 9,8 12,3 7,9 86 2,6 1089 1,0 5,7 196 2,7
09.04.2021 7,6 7,9 7,4 7,4 17,6 -3,8 58 0,1 5240 1,5 8,6 215 10,6
08.04.2021 7,2 7,0 4,3 4,2 9,8 -0,2 56 0,0 4030 1,3 5,9 244 10,6
07.04.2021 7,4 6,6 3,1 3,0 5,2 1,0 66 0,2 1858 3,0 12,7 291 7,0
06.04.2021 7,5 6,7 3,1 2,7 7,9 -0,8 65 0,0 3826 2,5 10,0 251 7,1
05.04.2021 8,7 7,7 2,8 3,2 8,0 -1,4 76 1,3 1514 2,1 11,5 304 4,8
04.04.2021 9,5 9,4 5,7 5,5 12,8 -2,4 65 0,0 4937 0,9 5,2 337 10,9
03.04.2021 10,0 10,3 8,6 8,3 13,9 2,6 50 0,0 5290 1,4 8,2 322 10,5
02.04.2021 10,4 10,4 9,1 8,9 14,6 4,1 59 0,0 3530 1,6 7,9 18 8,4
01.04.2021 10,4 11,3 14,4 14,7 25,5 4,3 59 0,0 4916 1,1 8,0 60 10,2
31.03.2021 9,8 10,7 13,5 13,8 25,3 2,9 54 0,0 5548 0,7 4,6 334 10,7
30.03.2021 9,2 9,9 12,1 12,5 24,0 0,5 53 0,0 5588 0,7 4,6 304 10,7
29.03.2021 8,6 9,4 11,8 12,5 22,4 3,8 52 0,0 5437 1,2 8,0 214 10,4
28.03.2021 8,0 8,4 9,3 9,4 16,3 2,8 65 0,0 4241 1,7 9,6 235 8,9
27.03.2021 8,3 8,4 8,0 8,1 11,4 4,0 67 0,0 3304 3,4 14,4 260 8,1
26.03.2021 8,0 8,9 11,7 11,6 17,4 6,3 64 0,0 4352 1,7 8,6 194 9,1
25.03.2021 7,0 7,2 7,6 7,7 17,3 -1,1 71 0,0 3851 1,3 7,0 239 10,1
24.03.2021 6,6 6,7 5,6 5,6 15,2 -2,9 75 0,0 4988 0,8 4,9 220 10,2
23.03.2021 6,6 6,9 6,3 6,4 10,5 1,0 72 0,0 2511 0,8 5,0 267 8,2
22.03.2021 6,1 6,1 6,0 6,0 8,3 4,2 68 0,0 1282 1,3 5,8 323 5,0
21.03.2021 6,0 6,0 5,8 5,8 10,6 2,5 67 0,0 1964 1,7 8,9 221 6,9
20.03.2021 5,5 5,1 2,4 2,1 7,3 -3,1 61 0,0 4759 0,9 5,2 11 9,7
19.03.2021 5,9 5,8 3,1 2,9 7,6 -2,2 79 0,6 3130 1,4 9,3 46 8,3
18.03.2021 5,6 5,0 2,2 1,9 7,9 -3,9 83 0,8 2940 0,7 6,2 164 8,5
17.03.2021 6,2 6,0 3,4 3,6 7,7 -1,7 87 3,6 1636 0,8 5,3 338 5,1
16.03.2021 6,3 6,1 5,5 5,7 9,5 2,9 76 2,6 1566 1,3 7,9 278 5,2
15.03.2021 6,2 6,2 5,7 5,7 10,1 3,1 81 4,5 2555 2,0 11,4 228 6,6
14.03.2021 6,3 6,1 4,9 5,0 8,2 3,0 81 0,8 1825 2,2 8,5 246 6,5
13.03.2021 6,6 6,7 6,9 7,2 9,7 4,3 79 2,6 1977 4,6 18,4 228 5,5
12.03.2021 6,4 6,6 7,2 7,5 10,6 4,3 68 2,1 2607 4,2 12,1 243 7,2
11.03.2021 6,2 6,6 9,0 9,4 15,1 5,4 75 3,9 1317 4,2 13,3 228 3,1
10.03.2021 5,5 5,8 6,6 6,5 10,9 2,2 78 0,0 1898 1,5 5,7 207 6,8
09.03.2021 4,7 4,7 3,7 3,5 7,9 -1,0 81 0,0 1995 0,9 5,3 250 5,8
08.03.2021 4,2 3,6 1,4 1,5 7,2 -5,6 75 0,0 2590 0,6 4,3 59 7,9
07.03.2021 4,4 3,4 2,0 2,0 10,0 -4,5 59 0,0 3951 1,0 5,8 23 8,5
06.03.2021 5,0 3,9 1,0 1,0 8,5 -4,4 65 0,0 3876 1,1 7,5 58 8,7
05.03.2021 6,3 6,2 3,5 3,7 7,3 -2,5 79 1,7 2046 1,2 6,7 19 7,2
04.03.2021 6,0 6,4 7,7 8,0 14,8 3,2 83 1,1 2238 1,0 9,6 228 5,4
03.03.2021 5,3 5,1 4,9 5,2 14,1 -1,8 82 0,0 2612 0,5 4,0 194 7,1
02.03.2021 5,2 5,1 6,5 6,9 15,1 1,2 75 0,0 3579 0,8 3,5 42 8,4
01.03.2021 4,8 4,3 5,0 5,3 13,9 -1,4 79 0,0 3429 1,0 6,6 72 8,2
28.02.2021 5,0 4,6 4,6 4,8 11,6 -1,1 74 0,0 3466 1,0 7,7 26 8,3
27.02.2021 5,1 4,6 3,5 3,6 9,2 -1,7 84 0,0 3360 0,9 6,2 30 7,9
26.02.2021 5,8 5,3 3,7 4,3 8,2 -0,1 96 2,8 520 0,5 6,1 98 ---
25.02.2021 6,1 6,3 8,1 8,6 19,0 -0,1 79 0,0 3231 0,6 3,1 241 8,3
24.02.2021 5,9 6,3 9,0 9,7 19,0 3,0 84 0,0 2870 0,5 3,5 174 8,0
23.02.2021 5,3 5,7 8,4 8,8 18,7 1,8 83 0,0 2776 1,0 5,6 192 7,9
22.02.2021 4,7 4,8 5,8 6,2 12,9 -0,3 85 0,0 2643 0,8 3,9 44 8,5
21.02.2021 4,4 4,4 6,8 7,2 18,9 -1,6 79 0,0 3194 0,6 2,9 54 8,4
20.02.2021 4,2 4,5 6,7 6,9 16,3 -0,1 86 0,0 2752 0,8 4,4 167 7,8
19.02.2021 3,5 3,8 6,0 6,4 12,1 -0,4 85 0,0 2638 1,1 6,1 209 7,7
18.02.2021 2,8 2,6 2,9 3,2 9,6 -1,8 92 0,0 1427 0,5 4,9 145 5,8
17.02.2021 1,9 2,2 6,3 7,1 11,9 1,6 86 1,2 1206 1,6 6,7 214 4,1
16.02.2021 1,3 0,3 3,4 3,8 9,9 0,4 89 0,0 1723 0,7 5,5 194 5,9
15.02.2021 1,3 0,2 -1,7 -1,6 1,6 -5,9 74 0,9 828 1,0 5,5 104 2,5
14.02.2021 1,4 0,1 -3,4 -3,3 3,5 -9,2 67 0,0 2743 1,6 7,8 68 7,3
13.02.2021 1,7 0,5 -5,3 -5,3 0,8 -9,7 67 0,0 2816 1,5 8,3 63 7,7
12.02.2021 2,1 0,9 -5,0 -4,9 -0,5 -10,1 71 0,0 2824 1,5 7,5 45 7,8
11.02.2021 2,5 1,2 -6,3 -6,2 -0,1 -11,0 85 0,0 1994 0,5 3,9 35 6,1
10.02.2021 3,1 1,8 -7,8 -7,8 -3,5 -10,4 71 0,0 1754 1,7 7,8 39 6,8
09.02.2021 3,9 2,9 -6,8 -6,9 -4,2 -9,4 70 0,0 1241 1,3 5,8 30 5,1
08.02.2021 4,6 3,4 -4,3 -4,5 -2,5 -6,3 86 0,8 706 0,0 0,6 --- 1,5
07.02.2021 5,7 5,1 1,8 1,8 3,5 -2,5 98 5,5 280 1,4 6,7 36 ---
06.02.2021 6,2 6,1 5,1 5,2 6,4 3,0 98 13,4 181 1,6 6,2 27 ---
05.02.2021 6,0 5,9 5,5 5,5 7,6 2,9 97 5,6 548 0,5 3,5 43 0,1
04.02.2021 6,5 6,6 7,4 7,6 10,7 2,9 80 0,6 1858 1,9 10,9 233 6,4
03.02.2021 6,2 6,9 10,1 10,7 12,9 9,6 90 12,2 377 3,1 9,8 199 0,2
02.02.2021 5,0 5,3 6,9 7,3 10,8 3,8 95 3,2 471 1,7 6,8 202 0,5
01.02.2021 4,4 4,2 3,0 3,0 4,6 1,3 99 4,6 477 0,8 4,0 51 ---
31.01.2021 4,4 3,7 0,6 0,6 1,8 -0,6 90 1,8 627 1,4 5,0 57 1,5
30.01.2021 5,4 5,2 3,8 4,0 8,3 0,2 92 6,2 514 2,1 8,8 358 1,0
29.01.2021 5,1 5,8 8,9 9,3 12,0 7,4 82 3,6 858 3,0 12,6 239 3,3
28.01.2021 3,6 3,7 5,3 5,7 11,0 2,0 95 14,0 260 2,0 6,2 215 ---
27.01.2021 3,2 2,4 0,8 1,0 2,3 0,1 95 0,3 362 2,3 7,7 205 0,2
26.01.2021 3,4 2,7 1,8 2,2 4,3 -0,7 80 0,0 258 2,1 7,8 238 ---
25.01.2021 3,7 3,1 0,4 0,5 2,5 -1,4 94 0,4 502 0,5 3,1 290 0,4
24.01.2021 4,2 3,7 1,7 2,0 4,5 -1,1 86 2,6 585 2,9 11,4 259 0,7
23.01.2021 4,4 3,9 2,8 3,1 5,0 1,1 94 0,0 414 1,3 5,1 141 0,2
22.01.2021 4,9 5,1 5,5 5,8 10,2 1,4 90 8,1 456 2,3 11,1 221 ---
21.01.2021 3,8 4,0 7,8 8,4 10,1 6,6 70 2,0 533 3,9 12,7 215 0,1
20.01.2021 3,0 2,6 4,2 4,9 8,7 1,1 71 0,0 780 1,4 5,6 200 3,2
19.01.2021 3,1 2,7 2,7 3,0 4,1 1,4 84 1,1 189 3,2 9,3 226 ---
18.01.2021 2,6 2,3 2,4 2,7 5,2 0,4 88 0,0 840 1,7 8,5 234 2,3
17.01.2021 2,2 1,5 -0,8 -0,9 0,8 -2,5 98 0,9 535 1,1 4,1 208 1,5
16.01.2021 2,1 1,3 -0,5 -0,4 0,8 -1,9 73 0,2 424 1,1 5,3 227 0,4
15.01.2021 2,3 1,2 -0,7 -0,4 1,9 -3,3 82 0,0 873 0,8 6,0 18 3,6
14.01.2021 2,4 1,7 1,1 1,5 3,4 -2,0 76 0,0 636 0,8 4,0 337 2,0
13.01.2021 2,3 1,2 0,2 0,8 4,8 -3,5 89 0,0 1327 1,4 8,2 228 4,1
12.01.2021 2,3 1,2 1,4 1,8 4,0 0,1 89 5,8 226 2,9 8,1 215 ---
11.01.2021 2,5 1,0 -2,8 -3,0 1,7 -7,8 88 0,0 1431 1,5 7,4 200 5,2
10.01.2021 3,2 1,8 -1,9 -1,8 3,5 -5,7 89 0,0 1645 0,4 2,3 204 6,1
09.01.2021 4,1 3,1 0,1 0,3 3,4 -2,7 88 0,0 753 0,5 5,4 44 2,0
08.01.2021 4,3 3,6 1,6 1,7 3,0 0,7 91 0,6 578 1,5 5,1 239 1,3
07.01.2021 4,5 3,8 1,8 1,9 3,0 1,1 87 0,4 395 1,3 4,6 240 ---
06.01.2021 4,5 3,9 2,3 2,4 4,0 1,2 92 0,6 356 0,8 4,7 7 0,2
05.01.2021 4,5 3,8 2,0 2,1 3,3 1,5 92 0,8 338 1,2 4,9 25 ---
04.01.2021 4,5 3,7 1,2 1,3 2,2 0,2 97 0,8 249 0,8 3,6 27 ---
03.01.2021 4,6 3,7 1,1 1,2 3,1 -1,4 93 2,4 298 0,7 5,0 20 ---
02.01.2021 5,0 4,3 1,5 1,7 3,9 -0,5 88 0,0 548 0,6 4,3 348 ---
01.01.2021 5,1 4,6 2,5 2,5 3,7 1,2 97 0,6 371 0,5 2,5 273 0,1

Mittelwerte (Temperaturen, Strahlung, rel. Feuchte, Wind), Summe (Regen) für 2021
6,3 6,1 4,8 4,9 77 165 2.580 1,4

Landesbetrieb Landwirtschaft Hessen 2009

      Werte bis 5 Uhr SommerzeitCSV-Datei: Gross-Gerau21.csvDiagramm: Gross-Gerau